Main page
METAR-TAF:

METAR-TAF

Airports :

Kullu–Manali Airport

Kullu / Manali, India

latitude: 31-52-36N, longitude: 77-09-16E, elevation: 1089 m

METAR: missing

Time: 03:56 (22:26 UTC)

Forecast

The report was made 17 hours and 26 minutes ago, at 05:00 UTC
Forecast valid from 20 at 06 UTC to 20 at 15 UTC
Wind 8 kt from the East
Visibility: 5000 m
Scattered clouds at a height of 3500 ft
Broken clouds at a height of 8000 ft
haze, rain
Becoming
from 20 at 08 UTC to 20 at 12 UTC
Visibility: 1500 m
Few clouds at a height of 4000 ft, Cumulonimbus.
Overcast at a height of 8000 ft
thunderstorm, rain

TAF: VIBR 200500Z 2006/2015 08008KT 5000 HZ RA SCT035 BKN080 BECMG 2008/2012 1500 TSRA FEW040CB OVC080

Weather observations and forecasts of more than 4000 airports (METAR and TAF reports).

The available stations are represented by yellow and red dots on the map.

Hover mouse over dot to see the name of the station.

Then click to see weather observations and forecasts.

To change the map : click on the green buttons with a black cross to zoom in, on the green button with a dash to zoom out, or on the green arrows for adjacent maps.


METAR-TAF: